Time;durP1;ratioP1;P1;durP2;ratioP2;P2;SDS_P1;SDS_P2;PMS_P1;PMS_P2;Temp;Humidity;BMP_temperature;BMP_pressure;BME280_temperature;BME280_humidity;BME280_pressure;Samples;Min_cycle;Max_cycle;Signal;HPM_P1;HPM_P2
2022/12/27 00:01:52;;;;;;;65.07;35.43;;;;;;;6.94;100.00;100579.84;1477127;88;21545;-86
2022/12/27 00:04:19;;;;;;;66.90;34.20;;;;;;;6.91;100.00;100577.45;1476037;88;21301;-88
2022/12/27 00:06:47;;;;;;;61.73;34.27;;;;;;;6.83;100.00;100576.37;1480031;88;21574;-89
2022/12/27 00:09:14;;;;;;;61.30;33.67;;;;;;;6.83;100.00;100572.44;1476939;88;21404;-87
2022/12/27 00:11:42;;;;;;;60.47;34.07;;;;;;;6.83;100.00;100582.95;1476135;88;22317;-86
2022/12/27 00:14:10;;;;;;;56.10;33.33;;;;;;;6.81;100.00;100594.06;1474635;88;21953;-88
2022/12/27 00:16:38;;;;;;;56.87;30.77;;;;;;;6.80;100.00;100593.72;1563010;88;21213;-89
2022/12/27 00:19:06;;;;;;;58.90;32.73;;;;;;;6.80;100.00;100588.46;1400303;88;21227;-88
2022/12/27 00:21:35;;;;;;;59.83;32.17;;;;;;;6.76;100.00;100583.89;1400506;88;21552;-87
2022/12/27 00:24:02;;;;;;;48.07;27.07;;;;;;;6.70;100.00;100591.81;1399588;88;22159;-86
2022/12/27 00:26:32;;;;;;;58.70;31.73;;;;;;;6.69;100.00;100591.42;1400594;88;21375;-83
2022/12/27 00:29:01;;;;;;;63.42;33.15;;;;;;;6.69;100.00;100594.55;1398219;88;21345;-87
2022/12/27 00:31:30;;;;;;;57.63;30.40;;;;;;;6.65;100.00;100601.84;1400762;88;21464;-83
2022/12/27 00:34:01;;;;;;;60.73;31.83;;;;;;;6.64;100.00;100597.52;1398647;88;21264;-84
2022/12/27 00:36:30;;;;;;;60.23;33.42;;;;;;;6.64;100.00;100613.30;1397219;88;21250;-85
2022/12/27 00:38:59;;;;;;;52.17;30.57;;;;;;;6.64;100.00;100619.87;1399560;88;21190;-87
2022/12/27 00:41:26;;;;;;;57.37;32.27;;;;;;;6.67;100.00;100618.80;1386124;90;21228;-86
2022/12/27 00:43:53;;;;;;;57.77;31.37;;;;;;;6.72;100.00;100615.34;1401799;88;21257;-87
2022/12/27 00:46:21;;;;;;;70.70;34.00;;;;;;;6.72;100.00;100605.66;1387887;89;22203;-87
2022/12/27 00:48:48;;;;;;;49.80;28.87;;;;;;;6.73;100.00;100611.75;1401583;88;21258;-86
2022/12/27 00:51:22;;;;;;;57.87;31.67;;;;;;;6.73;100.00;100626.22;1407089;88;21345;-88
2022/12/27 00:53:51;;;;;;;61.43;31.93;;;;;;;6.71;100.00;100632.92;1396934;88;21227;-88
2022/12/27 00:56:26;;;;;;;64.10;34.10;;;;;;;6.76;100.00;100628.16;1399869;88;21397;-87
2022/12/27 00:58:56;;;;;;;52.27;31.83;;;;;;;6.82;100.00;100624.67;1562367;88;21265;-88
2022/12/27 01:01:26;;;;;;;66.67;32.77;;;;;;;6.84;100.00;100633.29;1398711;88;21286;-87
2022/12/27 01:03:54;;;;;;;54.58;30.25;;;;;;;6.83;100.00;100636.89;1398092;88;21687;-86
2022/12/27 01:06:27;;;;;;;60.87;31.63;;;;;;;6.83;100.00;100635.09;1400366;88;21412;-88
2022/12/27 01:08:56;;;;;;;56.93;32.50;;;;;;;6.81;100.00;100635.67;1556832;88;21501;-87
2022/12/27 01:11:25;;;;;;;54.17;33.47;;;;;;;6.84;100.00;100637.23;1559146;88;21256;-88
2022/12/27 01:13:57;;;;;;;53.00;28.60;;;;;;;6.87;100.00;100624.67;1399114;88;21311;-86
2022/12/27 01:16:27;;;;;;;61.93;34.57;;;;;;;6.87;100.00;100622.53;1475727;88;21544;-88
2022/12/27 01:18:54;;;;;;;58.40;32.47;;;;;;;6.90;100.00;100624.92;1399073;88;21272;-87
2022/12/27 01:21:24;;;;;;;58.30;30.83;;;;;;;6.95;100.00;100630.67;1457490;88;21497;-87
2022/12/27 01:23:51;;;;;;;54.87;32.87;;;;;;;6.98;100.00;100644.91;1399203;88;21324;-83
2022/12/27 01:26:21;;;;;;;47.87;29.83;;;;;;;6.96;100.00;100635.83;1401244;88;21338;-85
2022/12/27 01:28:50;;;;;;;48.50;29.27;;;;;;;6.92;100.00;100633.54;1403562;88;21286;-84
2022/12/27 01:31:21;;;;;;;48.27;30.90;;;;;;;6.88;100.00;100622.42;1400041;88;21419;-84
2022/12/27 01:33:51;;;;;;;50.87;32.67;;;;;;;6.85;100.00;100613.91;1545549;88;21243;-87
2022/12/27 01:36:21;;;;;;;51.17;31.60;;;;;;;6.80;100.00;100614.77;1561279;88;21264;-84
2022/12/27 01:38:49;;;;;;;53.38;30.95;;;;;;;6.78;100.00;100642.01;1398964;88;21286;-86
2022/12/27 01:44:47;;;;;;;47.73;28.67;;;;;;;6.75;100.00;100653.25;1562304;88;21191;-85
2022/12/27 01:47:29;;;;;;;54.73;29.27;;;;;;;6.75;100.00;100647.50;1404708;88;21472;-86
2022/12/27 01:50:08;;;;;;;52.50;32.47;;;;;;;6.71;100.00;100628.15;1563326;88;21162;-87
2022/12/27 01:52:46;;;;;;;50.97;29.83;;;;;;;6.69;100.00;100615.10;1562326;88;21516;-85
2022/12/27 01:55:31;;;;;;;45.93;29.17;;;;;;;6.66;100.00;100617.97;1408097;88;21256;-85
2022/12/27 01:58:25;;;;;;;45.27;28.33;;;;;;;6.66;100.00;100623.23;1526071;88;21500;-86
2022/12/27 02:00:52;;;;;;;51.03;33.20;;;;;;;6.68;100.00;100634.97;1472737;88;21374;-86
2022/12/27 02:03:28;;;;;;;50.70;30.30;;;;;;;6.67;100.00;100654.30;1476575;88;21572;-86
2022/12/27 02:05:58;;;;;;;48.80;31.63;;;;;;;6.64;100.00;100657.17;1476273;88;21574;-87
2022/12/27 02:08:48;;;;;;;48.83;30.32;;;;;;;6.63;100.00;100639.73;1397634;88;21301;-87
2022/12/27 02:11:49;;;;;;;43.98;27.48;;;;;;;6.62;100.00;100628.83;1556528;88;21367;-86
2022/12/27 02:13:48;;;;;;;41.97;26.50;;;;;;;6.63;100.00;100623.47;1432779;88;22307;-85
2022/12/27 02:16:18;;;;;;;37.83;26.90;;;;;;;6.63;100.00;100620.00;1401062;88;21398;-86
2022/12/27 02:18:46;;;;;;;42.67;26.25;;;;;;;6.66;100.00;100619.77;1397149;88;21212;-89
2022/12/27 02:21:41;;;;;;;38.90;26.77;;;;;;;6.71;100.00;100620.26;1401124;88;21504;-86
2022/12/27 02:25:04;;;;;;;39.40;26.63;;;;;;;6.73;100.00;100620.50;1562472;88;21354;-86
2022/12/27 02:28:03;;;;;;;42.67;27.53;;;;;;;6.78;100.00;100605.66;1403102;88;21355;-87
2022/12/27 02:30:32;;;;;;;39.83;25.13;;;;;;;6.83;100.00;100610.58;1548850;88;21353;-85
2022/12/27 02:33:08;;;;;;;39.87;27.23;;;;;;;6.86;100.00;100606.39;1399789;88;21264;-86
2022/12/27 02:35:43;;;;;;;36.83;24.57;;;;;;;6.90;100.00;100586.77;1396965;88;22189;-88
2022/12/27 02:38:20;;;;;;;44.50;27.87;;;;;;;6.96;100.00;100592.86;1512874;88;21405;-86
2022/12/27 02:53:07;;;;;;;39.90;26.13;;;;;;;6.95;100.00;100582.82;1556903;87;21389;-86
2022/12/27 02:59:03;;;;;;;40.03;26.60;;;;;;;7.08;100.00;100568.23;1312584;95;21400;-87
2022/12/27 03:05:07;;;;;;;45.20;26.47;;;;;;;6.98;100.00;100635.20;1538979;88;21426;-90
2022/12/27 03:08:03;;;;;;;41.87;27.70;;;;;;;6.97;100.00;100626.97;1542141;88;21323;-89
2022/12/27 03:16:40;;;;;;;46.20;28.80;;;;;;;6.90;100.00;100606.50;1562312;88;22087;-89
2022/12/27 03:27:40;;;;;;;43.20;27.07;;;;;;;6.73;100.00;100622.27;1556948;88;21249;-86
2022/12/27 03:33:14;;;;;;;35.23;24.93;;;;;;;6.62;100.00;100621.80;1562395;88;22094;-85
2022/12/27 03:38:56;;;;;;;34.67;23.83;;;;;;;6.49;100.00;100609.22;1562323;88;22138;-85
2022/12/27 03:44:23;;;;;;;34.90;23.73;;;;;;;6.43;100.00;100596.06;1562355;88;21161;-88
2022/12/27 03:46:57;;;;;;;39.00;25.20;;;;;;;6.44;100.00;100602.98;1404016;88;21538;-89
2022/12/27 03:49:53;;;;;;;38.43;24.80;;;;;;;6.44;100.00;100595.09;1396781;88;22344;-90
2022/12/27 03:52:29;;;;;;;38.10;24.27;;;;;;;6.46;100.00;100587.11;1411010;88;21427;-87
2022/12/27 03:54:57;;;;;;;35.33;23.40;;;;;;;6.46;100.00;100589.73;1399313;88;21511;-86
2022/12/27 03:57:26;;;;;;;38.80;22.93;;;;;;;6.46;100.00;100588.42;1400680;88;21434;-85
2022/12/27 03:59:54;;;;;;;40.00;25.03;;;;;;;6.46;100.00;100583.16;1398445;88;22292;-85
2022/12/27 04:02:21;;;;;;;39.73;23.77;;;;;;;6.48;100.00;100572.89;1401580;88;21279;-87
2022/12/27 04:04:49;;;;;;;37.27;24.20;;;;;;;6.45;100.00;100577.55;1401389;88;21286;-86
2022/12/27 04:07:16;;;;;;;38.13;24.27;;;;;;;6.45;100.00;100580.19;1406336;88;21294;-86
2022/12/27 04:34:41;;;;;;;36.07;23.00;;;;;;;6.19;100.00;100596.61;1465230;88;21389;-87
2022/12/27 04:37:15;;;;;;;42.63;25.03;;;;;;;6.17;100.00;100589.31;1477868;88;21412;-89
2022/12/27 04:56:14;;;;;;;41.40;24.87;;;;;;;5.93;100.00;100597.19;1558351;88;21228;-84
2022/12/27 05:02:01;;;;;;;36.40;24.10;;;;;;;5.94;100.00;100596.28;1397962;88;22115;-85
2022/12/27 05:03:56;;;;;;;39.83;25.50;;;;;;;5.90;100.00;100560.19;1509244;88;22152;-86
2022/12/27 05:06:23;;;;;;;43.63;26.40;;;;;;;5.93;100.00;100561.72;1398008;88;21309;-86
2022/12/27 05:14:22;;;;;;;45.60;28.87;;;;;;;5.94;100.00;100549.00;1458863;88;21489;-88
2022/12/27 05:16:49;;;;;;;40.20;26.13;;;;;;;5.91;100.00;100532.95;1457117;88;21395;-89
2022/12/27 05:19:16;;;;;;;43.87;25.50;;;;;;;5.88;100.00;100530.56;1474847;88;21389;-87
2022/12/27 05:27:17;;;;;;;45.53;28.77;;;;;;;5.85;100.00;100555.74;1475466;88;22306;-84
2022/12/27 05:29:46;;;;;;;38.90;25.53;;;;;;;5.82;100.00;100569.94;1473545;88;21375;-88
2022/12/27 05:32:13;;;;;;;43.63;27.63;;;;;;;5.78;100.00;100571.12;1474341;88;21504;-85
2022/12/27 05:34:40;;;;;;;46.17;27.07;;;;;;;5.80;100.00;100571.83;1473701;88;21323;-83
2022/12/27 05:37:08;;;;;;;41.50;25.23;;;;;;;5.78;100.00;100571.12;1473731;88;21323;-83
2022/12/27 05:39:36;;;;;;;44.83;25.70;;;;;;;5.77;100.00;100574.69;1471915;88;21389;-83
2022/12/27 05:42:04;;;;;;;45.90;27.43;;;;;;;5.76;100.00;100580.07;1471024;88;21449;-84
2022/12/27 05:44:31;;;;;;;39.77;23.97;;;;;;;5.77;100.00;100585.19;1470466;88;21560;-83
2022/12/27 05:46:58;;;;;;;42.20;25.40;;;;;;;5.75;100.00;100599.37;1476019;88;21501;-84
2022/12/27 05:49:25;;;;;;;38.07;24.77;;;;;;;5.74;100.00;100595.09;1469813;88;21456;-83
2022/12/27 05:51:52;;;;;;;38.90;24.83;;;;;;;5.74;100.00;100583.27;1476225;88;21390;-84
2022/12/27 05:54:20;;;;;;;36.37;22.93;;;;;;;5.73;100.00;100604.77;1475766;88;22336;-84
2022/12/27 05:56:47;;;;;;;36.00;21.97;;;;;;;5.71;100.00;100609.28;1470409;88;21426;-84
2022/12/27 05:59:15;;;;;;;36.63;24.40;;;;;;;5.72;100.00;100609.63;1475463;88;21360;-84
2022/12/27 06:01:42;;;;;;;41.00;26.00;;;;;;;5.74;100.00;100620.88;1478521;88;21382;-83
2022/12/27 06:04:10;;;;;;;31.93;22.13;;;;;;;5.76;100.00;100626.86;1477516;88;21353;-84
2022/12/27 06:06:37;;;;;;;36.83;24.07;;;;;;;5.73;100.00;100621.84;1471811;88;22432;-82
2022/12/27 06:09:04;;;;;;;36.67;23.07;;;;;;;5.75;100.00;100621.22;1469032;88;21390;-84
2022/12/27 06:11:31;;;;;;;38.40;25.13;;;;;;;5.77;100.00;100621.13;1472484;88;21375;-81
2022/12/27 06:13:58;;;;;;;38.60;23.83;;;;;;;5.78;100.00;100626.28;1473175;88;22321;-81
2022/12/27 06:16:26;;;;;;;39.10;23.73;;;;;;;5.80;100.00;100631.41;1472288;88;21530;-82
2022/12/27 06:18:53;;;;;;;41.40;24.83;;;;;;;5.83;100.00;100635.12;1473992;88;21330;-82
2022/12/27 06:21:21;;;;;;;40.67;26.27;;;;;;;5.83;100.00;100637.27;1472081;88;21575;-81
2022/12/27 06:23:51;;;;;;;;;;;;;;;5.84;100.00;100646.84;1478253;88;21382;-83
2022/12/27 06:26:26;;;;;;;37.50;22.87;;;;;;;5.85;100.00;100648.52;1472810;88;20819;-84
2022/12/27 06:28:56;;;;;;;33.23;23.67;;;;;;;5.86;100.00;100647.55;1473555;88;21530;-85
2022/12/27 06:31:25;;;;;;;33.28;22.37;;;;;;;5.87;100.00;100651.88;1475053;88;22219;-83
2022/12/27 06:33:53;;;;;;;26.90;19.30;;;;;;;5.85;100.00;100645.88;1458846;88;22263;-86
2022/12/27 06:36:29;;;;;;;32.43;21.30;;;;;;;5.82;100.00;100655.30;1466609;88;21382;-86
2022/12/27 06:38:53;;;;;;;31.10;21.10;;;;;;;5.86;100.00;100655.43;1475449;88;21500;-85
2022/12/27 06:41:20;;;;;;;29.33;18.37;;;;;;;5.86;100.00;100663.31;1465397;88;21516;-86
2022/12/27 06:43:52;;;;;;;35.43;22.13;;;;;;;5.88;100.00;100675.87;1477129;88;21768;-87
2022/12/27 06:46:18;;;;;;;;;;;;;;;5.91;100.00;100677.92;1396346;88;21590;-85
2022/12/27 06:48:46;;;;;;;34.93;21.50;;;;;;;5.91;100.00;100677.44;1398500;88;20324;-87
2022/12/27 06:51:17;;;;;;;30.60;19.60;;;;;;;5.93;100.00;100678.63;1397322;88;21406;-86
2022/12/27 06:53:44;;;;;;;29.00;19.12;;;;;;;5.95;100.00;100675.45;1400929;88;21338;-84
2022/12/27 06:56:16;;;;;;;32.07;19.57;;;;;;;5.99;100.00;100683.49;1397777;88;22204;-87
2022/12/27 06:58:44;;;;;;;29.27;20.47;;;;;;;6.05;100.00;100693.55;1552557;88;22219;-85
2022/12/27 07:01:17;;;;;;;26.77;18.00;;;;;;;6.08;100.00;100701.20;1396808;88;22153;-86
2022/12/27 07:03:57;;;;;;;25.17;17.40;;;;;;;6.16;100.00;100708.51;1540798;88;21321;-85
2022/12/27 07:06:30;;;;;;;26.13;16.97;;;;;;;6.19;100.00;100717.03;1473302;88;21294;-85
2022/12/27 07:09:00;;;;;;;23.27;15.50;;;;;;;6.24;100.00;100712.28;1539871;88;21244;-84
2022/12/27 07:11:27;;;;;;;25.23;17.03;;;;;;;6.28;100.00;100713.72;1395110;88;21316;-82
2022/12/27 07:13:55;;;;;;;25.97;17.50;;;;;;;6.31;100.00;100722.69;1398583;88;21605;-86
2022/12/27 07:16:26;;;;;;;18.70;14.27;;;;;;;6.37;100.00;100721.89;1473617;88;21375;-87
2022/12/27 07:18:56;;;;;;;23.27;15.13;;;;;;;6.41;100.00;100724.64;1476018;88;21397;-84
2022/12/27 07:21:27;;;;;;;24.90;15.27;;;;;;;6.44;100.00;100732.30;1468872;88;22042;-83
2022/12/27 07:23:55;;;;;;;19.92;13.45;;;;;;;6.44;100.00;100737.55;1473927;88;21507;-82
2022/12/27 07:26:28;;;;;;;21.53;14.67;;;;;;;6.43;100.00;100741.98;1396790;88;21406;-86
2022/12/27 07:28:58;;;;;;;21.47;14.70;;;;;;;6.47;100.00;100752.66;1558520;88;21384;-82
2022/12/27 07:31:28;;;;;;;23.40;14.67;;;;;;;6.46;100.00;100746.17;1395103;88;21220;-82
2022/12/27 07:33:57;;;;;;;22.75;16.52;;;;;;;6.50;100.00;100743.67;1394419;88;22240;-83
2022/12/27 07:36:30;;;;;;;18.03;13.67;;;;;;;6.59;100.00;100743.47;1397237;88;21435;-84
2022/12/27 07:38:58;;;;;;;22.00;14.90;;;;;;;6.68;100.00;100735.74;1393769;90;21449;-81
2022/12/27 07:41:25;;;;;;;20.20;14.13;;;;;;;6.78;100.00;100734.08;1398327;88;21280;-85
2022/12/27 07:43:52;;;;;;;18.07;12.07;;;;;;;6.88;100.00;100745.25;1398075;88;21324;-83
2022/12/27 07:46:23;;;;;;;19.70;13.00;;;;;;;6.91;100.00;100743.70;1408134;88;21331;-86
2022/12/27 07:48:54;;;;;;;21.87;15.05;;;;;;;6.92;100.00;100750.15;1394094;88;21235;-87
2022/12/27 07:51:21;;;;;;;25.97;13.72;;;;;;;6.93;100.00;100748.35;1558216;88;21287;-87
2022/12/27 07:53:50;;;;;;;19.90;13.13;;;;;;;6.93;100.00;100749.21;1403755;88;21390;-86
2022/12/27 07:56:21;;;;;;;19.83;12.57;;;;;;;6.98;100.00;100748.84;1397184;88;21258;-87
2022/12/27 07:58:50;;;;;;;18.60;11.47;;;;;;;7.01;100.00;100757.82;1552352;88;22172;-84
2022/12/27 08:01:19;;;;;;;20.57;14.40;;;;;;;7.03;100.00;100752.45;1397116;88;21501;-91
2022/12/27 08:03:47;;;;;;;19.57;13.97;;;;;;;7.02;100.00;100758.20;1395263;88;21480;-88
2022/12/27 08:06:33;;;;;;;21.77;13.60;;;;;;;7.01;100.00;100763.09;1398137;88;21338;-86
2022/12/27 08:09:04;;;;;;;18.80;13.63;;;;;;;7.00;100.00;100766.20;1393745;88;21487;-85
2022/12/27 08:11:31;;;;;;;22.55;14.03;;;;;;;7.06;100.00;100768.84;1394171;88;21394;-88
2022/12/27 08:13:58;;;;;;;22.83;15.07;;;;;;;7.08;100.00;100768.27;1398289;88;21220;-87
2022/12/27 08:16:25;;;;;;;18.30;13.20;;;;;;;7.13;100.00;100771.84;1398149;88;21265;-87
2022/12/27 08:18:53;;;;;;;18.33;12.63;;;;;;;7.20;100.00;100777.84;1398124;88;21272;-85
2022/12/27 08:21:20;;;;;;;22.37;13.67;;;;;;;7.21;100.00;100778.68;1404484;88;21294;-89
2022/12/27 08:23:48;;;;;;;22.27;14.90;;;;;;;7.28;100.00;100779.04;1431584;88;21390;-87
2022/12/27 08:26:16;;;;;;;22.10;13.83;;;;;;;7.34;100.00;100779.91;1474530;88;21504;-89
2022/12/27 08:28:43;;;;;;;22.53;13.70;;;;;;;7.40;100.00;100784.22;1473465;88;21494;-86
2022/12/27 08:31:12;;;;;;;20.97;14.17;;;;;;;7.47;100.00;100783.25;1475528;88;21382;-87
2022/12/27 08:33:40;;;;;;;21.10;14.50;;;;;;;7.54;100.00;100788.42;1476078;88;21552;-87
2022/12/27 08:36:11;;;;;;;20.27;13.80;;;;;;;7.62;100.00;100789.98;1476171;88;21375;-84
2022/12/27 08:38:38;;;;;;;20.72;14.20;;;;;;;7.69;100.00;100791.66;1394620;88;21390;-86
2022/12/27 08:41:05;;;;;;;21.63;14.03;;;;;;;7.78;100.00;100798.00;1403805;88;21249;-86
2022/12/27 08:43:33;;;;;;;16.63;12.03;;;;;;;7.82;100.00;100799.42;1558973;88;21199;-86
2022/12/27 08:46:03;;;;;;;16.50;12.17;;;;;;;7.90;100.00;100799.66;1397864;88;21316;-88
2022/12/27 08:48:32;;;;;;;18.98;12.07;;;;;;;7.98;100.00;100800.38;1394444;88;21272;-87
2022/12/27 08:51:07;;;;;;;20.80;12.83;;;;;;;8.06;100.00;100798.81;1396442;88;21279;-87
2022/12/27 08:53:34;;;;;;;17.37;11.87;;;;;;;8.14;100.00;100802.13;1402370;88;21515;-84
2022/12/27 08:56:03;;;;;;;15.87;11.70;;;;;;;8.13;100.00;100812.33;1558352;88;21191;-88
2022/12/27 08:58:30;;;;;;;17.33;12.80;;;;;;;8.20;100.00;100819.26;1396856;88;21316;-86
2022/12/27 09:01:09;;;;;;;17.53;10.87;;;;;;;8.30;100.00;100814.94;1403807;88;21417;-87
2022/12/27 09:03:36;;;;;;;19.53;10.73;;;;;;;8.40;100.00;100810.64;1558331;88;21206;-84
2022/12/27 09:06:17;;;;;;;15.83;10.87;;;;;;;8.51;100.00;100805.30;1397240;88;22293;-88
2022/12/27 09:08:46;;;;;;;16.02;9.45;;;;;;;8.61;100.00;100800.13;1543319;88;21448;-84
2022/12/27 09:11:18;;;;;;;13.50;9.30;;;;;;;8.73;100.00;100801.75;1396126;88;21272;-84
2022/12/27 09:13:46;;;;;;;13.80;9.93;;;;;;;8.85;100.00;100801.22;1493297;88;22196;-84
2022/12/27 09:16:17;;;;;;;13.67;7.67;;;;;;;8.95;100.00;100803.47;1382721;90;21513;-87
2022/12/27 09:18:48;;;;;;;11.33;8.00;;;;;;;9.06;98.68;100803.86;1394013;88;21423;-86
2022/12/27 09:21:17;;;;;;;9.40;7.17;;;;;;;9.13;96.97;100805.53;1558364;88;22042;-85
2022/12/27 09:23:46;;;;;;;11.83;7.03;;;;;;;9.17;93.63;100805.12;1412056;88;21228;-88
2022/12/27 09:26:21;;;;;;;8.80;6.77;;;;;;;9.28;95.34;100811.31;1396323;88;21464;-85
2022/12/27 09:28:49;;;;;;;8.97;6.53;;;;;;;9.37;93.88;100811.36;1557853;88;21301;-86
2022/12/27 09:31:18;;;;;;;11.97;7.13;;;;;;;9.47;93.52;100816.23;1396726;88;21302;-85
2022/12/27 09:33:47;;;;;;;11.07;7.83;;;;;;;9.56;94.05;100821.70;1396101;88;21191;-85
2022/12/27 09:36:21;;;;;;;9.00;6.30;;;;;;;9.58;89.64;100828.53;1536167;88;21316;-85
2022/12/27 09:38:51;;;;;;;8.40;6.40;;;;;;;9.72;91.94;100843.18;1552121;88;21427;-87
2022/12/27 09:41:36;;;;;;;10.50;7.60;;;;;;;9.74;85.25;100850.50;1558318;88;21319;-86
2022/12/27 09:44:20;;;;;;;8.20;6.20;;;;;;;9.85;88.08;100858.34;1558351;88;21198;-87
2022/12/27 09:46:55;;;;;;;6.83;5.33;;;;;;;10.06;88.53;100856.12;1459893;88;22196;-84
2022/12/27 09:49:44;;;;;;;8.37;5.67;;;;;;;10.65;85.24;100861.13;1558107;88;21294;-86
2022/12/27 09:52:26;;;;;;;7.80;5.33;;;;;;;11.38;81.20;100856.22;1394582;88;22160;-86
2022/12/27 09:55:04;;;;;;;7.93;5.40;;;;;;;12.22;81.97;100843.45;1525611;88;21405;-86
2022/12/27 09:57:41;;;;;;;8.70;4.73;;;;;;;12.78;79.73;100841.90;1551639;88;21235;-86
2022/12/27 10:00:19;;;;;;;8.33;6.77;;;;;;;13.25;76.34;100840.78;1394217;88;22257;-85
2022/12/27 10:02:48;;;;;;;9.83;6.03;;;;;;;13.45;71.92;100850.77;1558274;88;21425;-87
2022/12/27 10:05:19;;;;;;;5.20;4.67;;;;;;;13.62;70.74;100858.36;1397766;88;21427;-86
2022/12/27 10:08:22;;;;;;;7.37;5.83;;;;;;;13.80;70.23;100868.93;1393431;88;21428;-88
2022/12/27 10:11:34;;;;;;;7.90;5.70;;;;;;;13.49;65.94;100870.72;1556064;88;21338;-90
2022/12/27 10:13:50;;;;;;;8.93;7.30;;;;;;;13.60;66.59;100880.27;1507952;88;21383;-83
2022/12/27 10:16:38;;;;;;;16.07;11.40;;;;;;;13.52;65.74;100881.91;1400431;88;22300;-86
2022/12/27 10:19:13;;;;;;;15.15;10.10;;;;;;;13.58;65.91;100883.58;1394369;90;21361;-86
2022/12/27 10:22:03;;;;;;;15.10;10.75;;;;;;;13.31;65.55;100886.71;1558016;88;21457;-86
2022/12/27 10:24:41;;;;;;;11.00;7.90;;;;;;;13.16;66.84;100893.05;1396306;90;21294;-83
2022/12/27 10:27:29;;;;;;;10.00;6.70;;;;;;;13.35;66.80;100905.38;1419062;88;21427;-84
2022/12/27 10:29:58;;;;;;;9.48;7.37;;;;;;;13.53;66.33;100901.34;1558284;88;21206;-86
2022/12/27 10:32:26;;;;;;;9.65;7.58;;;;;;;13.81;64.99;100911.82;1396354;88;21398;-85
2022/12/27 10:35:01;;;;;;;9.63;6.83;;;;;;;13.53;62.87;100912.81;1403225;88;21242;-85
2022/12/27 10:37:28;;;;;;;9.00;6.25;;;;;;;13.42;62.63;100924.19;1559725;88;21258;-86
2022/12/27 10:39:59;;;;;;;7.22;6.25;;;;;;;13.26;61.83;100927.06;1422706;88;21368;-87
2022/12/27 10:42:41;;;;;;;7.30;5.60;;;;;;;12.94;62.52;100936.00;1475703;88;21464;-87
2022/12/27 10:45:32;;;;;;;7.80;6.20;;;;;;;13.19;63.63;100935.76;1475664;88;21463;-88
2022/12/27 10:48:16;;;;;;;9.13;5.80;;;;;;;12.92;62.97;100938.83;1476077;88;22204;-86
2022/12/27 10:50:48;;;;;;;5.90;4.40;;;;;;;12.46;64.79;100935.33;1475656;88;21936;-85
2022/12/27 10:53:35;;;;;;;9.93;6.87;;;;;;;11.71;65.06;100939.25;1472543;88;21456;-85
2022/12/27 10:56:12;;;;;;;7.53;5.20;;;;;;;11.72;66.65;100933.45;1477150;88;22277;-85
2022/12/27 10:58:50;;;;;;;6.37;4.90;;;;;;;11.27;67.80;100933.55;1558331;88;21265;-84
2022/12/27 11:01:28;;;;;;;6.20;4.83;;;;;;;10.83;68.00;100927.81;1474212;88;21542;-85
2022/12/27 11:04:21;;;;;;;7.73;5.20;;;;;;;10.55;69.73;100932.06;1482823;88;22338;-85
2022/12/27 11:07:02;;;;;;;8.80;6.47;;;;;;;10.46;71.65;100928.08;1471245;88;22559;-86
2022/12/27 11:09:37;;;;;;;6.83;4.97;;;;;;;10.46;71.74;100934.20;1468536;88;22322;-85
2022/12/27 11:12:27;;;;;;;5.37;4.40;;;;;;;9.70;69.85;100937.64;1477493;88;21524;-84
2022/12/27 11:15:12;;;;;;;6.47;5.20;;;;;;;9.37;70.56;100946.09;1477488;88;22536;-85
2022/12/27 11:17:44;;;;;;;8.37;6.43;;;;;;;9.18;73.00;100952.06;1469228;88;22299;-85
2022/12/27 11:20:34;;;;;;;9.60;6.67;;;;;;;8.93;74.75;100970.86;1559214;88;21191;-86
2022/12/27 11:23:13;;;;;;;12.53;6.87;;;;;;;8.72;76.01;100962.87;1394667;90;21457;-83
2022/12/27 11:25:58;;;;;;;13.23;8.60;;;;;;;8.53;76.65;100967.44;1446414;88;22654;-83
2022/12/27 11:28:51;;;;;;;8.17;5.50;;;;;;;8.58;78.38;100970.08;1474541;88;21323;-85
2022/12/27 11:31:30;;;;;;;10.30;6.83;;;;;;;8.42;78.79;100973.55;1465728;88;21434;-85
2022/12/27 11:34:08;;;;;;;10.50;7.20;;;;;;;8.33;79.78;100987.44;1462442;88;21441;-85
2022/12/27 11:36:43;;;;;;;12.00;8.60;;;;;;;8.18;81.65;100993.42;1473328;88;21419;-84
2022/12/27 11:39:44;;;;;;;14.17;9.53;;;;;;;8.12;84.47;101003.96;1475059;88;21463;-85
2022/12/27 11:42:38;;;;;;;11.63;8.17;;;;;;;8.09;86.61;101008.15;1474730;88;21309;-86
2022/12/27 11:45:23;;;;;;;13.67;9.57;;;;;;;7.95;86.07;101008.36;1474289;88;22351;-85
2022/12/27 11:48:32;;;;;;;18.57;12.03;;;;;;;7.84;87.44;101016.23;1475269;88;21441;-85
2022/12/27 11:51:16;;;;;;;19.93;8.33;;;;;;;7.93;87.62;101018.17;1473465;88;21553;-83
2022/12/27 11:54:17;;;;;;;13.50;10.03;;;;;;;8.01;86.79;101021.07;1473657;88;21379;-84
2022/12/27 11:57:02;;;;;;;10.85;7.53;;;;;;;7.93;86.84;101020.81;1473026;88;22240;-84
2022/12/27 11:59:40;;;;;;;11.83;7.30;;;;;;;7.98;86.50;101026.58;1475877;88;21530;-85
2022/12/27 12:02:31;;;;;;;11.43;8.10;;;;;;;8.20;85.47;101027.11;1476612;88;21360;-84
2022/12/27 12:05:26;;;;;;;12.78;8.48;;;;;;;7.96;83.14;101032.44;1472025;88;21382;-85
2022/12/27 12:08:11;;;;;;;12.93;7.53;;;;;;;8.26;84.78;101033.72;1475726;88;22300;-84
2022/12/27 12:10:49;;;;;;;12.27;8.30;;;;;;;8.14;83.28;101048.20;1472354;88;21431;-84
2022/12/27 12:13:34;;;;;;;12.10;8.37;;;;;;;8.13;84.24;101051.77;1473769;88;21464;-84
2022/12/27 12:16:13;;;;;;;13.37;7.93;;;;;;;8.10;84.63;101063.03;1476610;88;22314;-85
2022/12/27 12:19:08;;;;;;;12.90;7.77;;;;;;;7.85;82.76;101067.98;1474068;88;21412;-82
2022/12/27 12:21:50;;;;;;;10.30;7.07;;;;;;;7.64;83.01;101067.30;1421734;88;21450;-83
2022/12/27 12:24:39;;;;;;;11.60;7.00;;;;;;;7.72;84.03;101077.77;1475522;88;21626;-82
2022/12/27 12:27:28;;;;;;;9.50;6.10;;;;;;;7.63;83.56;101078.80;1476095;88;21448;-84
2022/12/27 12:30:38;;;;;;;12.03;6.33;;;;;;;7.62;82.82;101085.04;1418886;92;21628;-86
2022/12/27 12:33:23;;;;;;;13.50;6.85;;;;;;;7.58;82.31;101092.78;1417040;92;21623;-84
2022/12/27 12:36:23;;;;;;;12.30;7.63;;;;;;;7.55;83.08;101096.96;1422834;92;21495;-81
2022/12/27 12:39:31;;;;;;;11.15;6.28;;;;;;;7.61;83.48;101105.73;1418198;92;22406;-83
2022/12/27 12:42:28;;;;;;;10.53;5.90;;;;;;;7.63;82.80;101109.09;1397759;92;21650;-84
2022/12/27 12:45:29;;;;;;;9.40;5.73;;;;;;;7.62;82.48;101112.70;1416628;92;21556;-83
2022/12/27 12:48:13;;;;;;;13.07;7.13;;;;;;;7.66;82.80;101112.83;1421748;92;21540;-83
2022/12/27 12:50:52;;;;;;;10.33;5.67;;;;;;;7.80;83.37;101118.41;1418376;92;21525;-83
2022/12/27 12:54:00;;;;;;;8.90;6.20;;;;;;;7.95;82.69;101126.14;1424457;92;21437;-83
2022/12/27 12:57:06;;;;;;;8.03;5.17;;;;;;;8.03;82.59;101129.89;1420776;92;21547;-83
2022/12/27 13:00:08;;;;;;;7.87;4.63;;;;;;;8.14;82.75;101137.84;1420136;92;21558;-83
2022/12/27 13:03:14;;;;;;;;;;;;;;;8.34;82.27;101131.53;1424728;92;21821;-82
2022/12/27 13:05:52;;;;;;;9.50;5.37;;;;;;;8.42;79.85;101121.27;1420755;91;20421;-83
2022/12/27 13:08:41;;;;;;;7.20;3.97;;;;;;;8.41;79.49;101128.00;1471219;88;22262;-84
2022/12/27 13:11:55;;;;;;;7.30;4.10;;;;;;;8.50;79.75;101129.93;1468096;88;21434;-81
2022/12/27 13:14:48;;;;;;;4.60;3.17;;;;;;;8.54;79.41;101140.11;1473514;88;21607;-82
2022/12/27 13:17:32;;;;;;;5.00;3.03;;;;;;;8.47;78.27;101131.00;1467662;88;21463;-82
2022/12/27 13:20:37;;;;;;;5.03;3.70;;;;;;;8.45;77.89;101144.78;1467779;88;22388;-83
2022/12/27 13:23:42;;;;;;;3.90;2.13;;;;;;;8.33;76.88;101140.41;1469361;88;21367;-84
2022/12/27 13:26:39;;;;;;;6.07;2.10;;;;;;;8.19;75.68;101151.15;1477016;88;22172;-83
2022/12/27 13:29:30;;;;;;;5.73;1.83;;;;;;;8.01;74.57;101150.24;1467729;88;21397;-84
2022/12/27 13:35:48;;;;;;;5.40;2.17;;;;;;;7.86;75.94;101160.61;1467416;88;21648;-83
2022/12/27 13:39:01;;;;;;;3.40;2.40;;;;;;;7.81;75.88;101167.52;1470632;88;22224;-83
2022/12/27 13:42:02;;;;;;;7.03;3.77;;;;;;;7.76;75.26;101172.75;1474043;88;22417;-82